Friday, October 31, 2014, 8:55 PM EDT

KNHK, Nas Patuxent River Md

Location: Patuxent River, MD, United States Lat: 38.3
Local Time: 8:55 PM EDT ( 0:55 GMT) Lon: -76.4
Time Zone: US/Eastern Elev: 39 ft

Show me the last for .
Show Decoded

2014-10-31 19:52 METAR KNHK 312352Z 35007KT 10SM FEW030 SCT060 10/03 A2984 RMK AO2 SLP104
                 T01000028 10144 20100 58008 $ =
2014-10-31 18:52 METAR KNHK 312252Z 35007KT 10SM FEW050 SCT250 11/02 A2985 RMK AO2 SLP107
                 T01060022 $ =
2014-10-31 17:52 METAR KNHK 312152Z 35008KT 10SM FEW050 FEW180 SCT250 11/02 A2985 RMK AO2 SLP109
                 T01110017 $ =
2014-10-31 16:52 METAR KNHK 312052Z 36009KT 10SM FEW050 FEW200 13/01 A2986 RMK AO2 SLP112
                 T01280006 55010 $ =
2014-10-31 15:52 METAR KNHK 311952Z 02011KT 10SM FEW050 FEW180 14/00 A2985 RMK AO2 SLP110
                 T01390000 $ =
2014-10-31 14:52 METAR KNHK 311852Z 02010KT 10SM FEW050 FEW180 14/00 A2988 RMK AO2 SLP117
                 T01440000 $ =
2014-10-31 13:52 METAR KNHK 311752Z COR 02011KT 10SM FEW045 FEW250 14/02 A2989 RMK AO2 SLP123
                 T01390022 10144 20089 58023 $ =
2014-10-31 12:52 METAR KNHK 311652Z 02008KT 10SM SCT045 SCT250 13/03 A2993 RMK AO2 SLP133
                 T01330028 $ =
2014-10-31 11:52 METAR KNHK 311552Z 02010KT 10SM FEW045 FEW070 SCT150 BKN220 13/03 A2994 RMK AO2
                 SLP137 T01330028 $ =
2014-10-31 10:52 METAR KNHK 311452Z 06006KT 10SM FEW055 SCT150 BKN220 12/04 A2996 RMK AO2 SLP146
                 T01170044 58009 $ =
2014-10-31 09:52 METAR KNHK 311352Z 07009KT 10SM FEW060 SCT150 BKN220 11/04 A2997 RMK AO2 SLP148
                 T01060044 =
2014-10-31 08:52 METAR KNHK 311252Z 05006KT 10SM FEW060 SCT150 OVC220 10/04 A2999 RMK AO2 SLP155
                 T01000044 =
2014-10-31 07:52 METAR KNHK 311152Z COR 07006KT 10SM SCT060 BKN250 09/04 A2999 RMK AO2 SLP156
                 T00890044 10094 20039 55005 =
2014-10-31 06:52 METAR KNHK 311052Z 00000KT 10SM SCT060 SCT250 04/03 A2998 RMK AO2 SLP153
                 T00390028 =
2014-10-31 05:52 METAR KNHK 310952Z 00000KT 10SM SCT060 05/03 A3000 RMK AO2 SLP158 T00500033 =
2014-10-31 04:52 METAR KNHK 310852Z AUTO 08005KT 10SM CLR 08/04 A3000 RMK AO2 SLP160 T00830039
                 55002 =
2014-10-31 02:52 METAR KNHK 310652Z AUTO VRB03KT 10SM CLR 07/03 A3000 RMK AO2 SLP159 T00670033 =
2014-10-31 01:52 METAR KNHK 310552Z AUTO 00000KT 10SM CLR 06/04 A3001 RMK AO2 SLP162 T00610039
                 10133 20056 58009 =
2014-10-31 00:52 METAR KNHK 310452Z AUTO 00000KT 10SM CLR 08/04 A3003 RMK AO2 SLP167 T00780039
                 401560067 =
2014-10-30 23:52 METAR KNHK 310352Z AUTO 34005KT 10SM CLR 10/04 A3003 RMK AO2 SLP168 T01000044 =
2014-10-30 22:52 METAR KNHK 310252Z 33008KT 10SM FEW060 11/04 A3004 RMK AO2 SLP171 T01060044
                 56000 =
2014-10-30 21:52 METAR KNHK 310152Z 33007KT 10SM FEW060 11/04 A3004 RMK AO2 SLP171 T01110039 =

Support USWX by starting your Amazon purchase here.